createdAt,value
2019-01-06T00:00:10.756Z,96.79
2019-01-06T00:00:52.653Z,97.03
2019-01-06T00:01:33.032Z,96.03
2019-01-06T00:02:13.445Z,96.22
2019-01-06T00:02:53.890Z,96.31
2019-01-06T00:03:35.885Z,95.03
2019-01-06T00:04:18.088Z,96.17
2019-01-06T00:04:58.333Z,94.93
2019-01-06T00:05:38.811Z,94.89
2019-01-06T00:06:20.268Z,95.22
2019-01-06T00:07:00.871Z,95.08
2019-01-06T00:07:41.181Z,95.75
2019-01-06T00:08:21.583Z,96.41
2019-01-06T00:09:01.970Z,95.89
2019-01-06T00:09:43.340Z,95.56
2019-01-06T00:10:23.709Z,95.6
2019-01-06T00:11:04.125Z,95.6
2019-01-06T00:11:44.486Z,95.03
2019-01-06T00:12:24.933Z,95.08
2019-01-06T00:13:05.524Z,94.79
2019-01-06T00:13:47.700Z,95.08
2019-01-06T00:14:28.108Z,94.89
2019-01-06T00:15:08.558Z,95.56
2019-01-06T00:15:48.954Z,95.75
2019-01-06T00:16:29.328Z,95.56
2019-01-06T00:17:09.680Z,95.17
2019-01-06T00:17:50.074Z,96.31
2019-01-06T00:18:30.590Z,96.12
2019-01-06T00:19:10.969Z,96.12
2019-01-06T00:19:51.386Z,95.46
2019-01-06T00:20:31.765Z,95.65
2019-01-06T00:21:12.143Z,96.22
2019-01-06T00:21:52.819Z,95.17
2019-01-06T00:22:33.218Z,95.27
2019-01-06T00:23:13.576Z,95.08
2019-01-06T00:23:54.101Z,95.46
2019-01-06T00:31:15.490Z,95.7
2019-01-06T00:31:56.005Z,95.08
2019-01-06T00:32:36.549Z,94.32
2019-01-06T00:33:16.913Z,94.79
2019-01-06T00:33:59.009Z,94.51
2019-01-06T00:34:41.052Z,94.6
2019-01-06T00:35:21.447Z,94.93
2019-01-06T00:36:01.903Z,95.08
2019-01-06T00:36:42.193Z,95.12
2019-01-06T00:37:22.643Z,95.03
2019-01-06T00:38:03.007Z,94.56
2019-01-06T00:38:44.387Z,94.37
2019-01-06T00:39:24.727Z,94.27
2019-01-06T00:40:05.160Z,94.13
2019-01-06T00:40:45.899Z,94.6
2019-01-06T00:41:26.069Z,95.08
2019-01-06T00:42:06.400Z,95.17
2019-01-06T00:42:48.479Z,94.98
2019-01-06T00:43:31.212Z,95.56
2019-01-06T00:44:12.541Z,94.89
2019-01-06T00:44:54.666Z,95.65
2019-01-06T00:48:35.445Z,94.84
2019-01-06T00:49:16.589Z,95.08
2019-01-06T00:49:57.086Z,94.46
2019-01-06T00:50:37.408Z,94.42
2019-01-06T00:51:18.762Z,94.93
2019-01-06T00:51:59.411Z,95.12
2019-01-06T00:52:39.737Z,94.84
2019-01-06T00:53:22.044Z,94.32
2019-01-06T00:54:03.313Z,94.6
2019-01-06T00:54:55.127Z,94.74
2019-01-06T00:55:37.110Z,94.56
2019-01-06T00:56:20.055Z,94.56
2019-01-06T00:57:08.732Z,94.46
2019-01-06T00:57:49.104Z,94.08
2019-01-06T00:58:29.470Z,94.46
2019-01-06T00:59:11.819Z,94.84
2019-01-06T00:59:52.013Z,94.79
2019-01-06T01:00:35.289Z,95.27
2019-01-06T01:01:15.794Z,94.51
2019-01-06T01:01:56.386Z,94.7
2019-01-06T01:02:38.557Z,94.7
2019-01-06T01:03:17.604Z,95.27
2019-01-06T01:03:59.822Z,94.32
2019-01-06T01:04:42.029Z,94.89
2019-01-06T01:05:24.179Z,95.75
2019-01-06T01:06:06.199Z,95.17
2019-01-06T01:06:46.906Z,95.17
2019-01-06T01:07:27.272Z,94.89
2019-01-06T01:08:07.916Z,94.79
2019-01-06T01:08:49.204Z,94.98
2019-01-06T01:09:29.724Z,95.08
2019-01-06T01:10:11.070Z,94.98
2019-01-06T01:10:51.461Z,94.51
2019-01-06T01:11:31.857Z,95.17
2019-01-06T01:12:17.075Z,94.89
2019-01-06T01:13:00.294Z,94.51
2019-01-06T01:13:42.581Z,95.08
2019-01-06T01:14:22.995Z,95.17
2019-01-06T01:15:03.355Z,94.51
2019-01-06T01:15:44.664Z,94.32
2019-01-06T01:16:25.065Z,94.32
2019-01-06T01:17:24.362Z,94.27
2019-01-06T01:18:04.733Z,94.7
2019-01-06T01:18:46.857Z,94.17
2019-01-06T01:19:27.192Z,94.46
2019-01-06T01:20:07.571Z,94.74
2019-01-06T01:20:52.803Z,94.13
2019-01-06T01:21:33.247Z,94.6
2019-01-06T01:22:16.194Z,94.37
2019-01-06T01:22:57.540Z,94.56
2019-01-06T01:23:39.763Z,94.46
2019-01-06T01:24:20.214Z,94.27
2019-01-06T01:25:03.487Z,94.27
2019-01-06T01:25:44.081Z,93.6
2019-01-06T01:26:25.360Z,93.13
2019-01-06T01:27:05.784Z,93.6
2019-01-06T01:27:46.143Z,93.6
2019-01-06T01:31:15.395Z,92.94
2019-01-06T01:31:56.381Z,93.32
2019-01-06T01:32:42.330Z,92.94
2019-01-06T01:33:22.788Z,93.55
2019-01-06T01:34:03.179Z,93.27
2019-01-06T01:34:45.799Z,94.51
2019-01-06T01:35:27.847Z,94.6
2019-01-06T01:36:09.359Z,94.6
2019-01-06T01:36:50.769Z,95.08
2019-01-06T01:37:31.233Z,94.51
2019-01-06T01:38:12.526Z,94.6
2019-01-06T01:38:52.896Z,94.51
2019-01-06T01:39:33.327Z,95.08
2019-01-06T01:40:14.880Z,95.65
2019-01-06T01:40:55.341Z,96.41
2019-01-06T01:41:36.600Z,95.46
2019-01-06T01:42:16.975Z,95.56
2019-01-06T01:44:05.224Z,94.98
2019-01-06T01:44:48.011Z,96.12
2019-01-06T01:45:30.953Z,94.89
2019-01-06T01:46:14.220Z,95.46
2019-01-06T01:46:55.594Z,94.98
2019-01-06T01:47:35.994Z,95.36
2019-01-06T01:48:17.767Z,95.27
2019-01-06T01:48:58.248Z,94.79
2019-01-06T01:49:38.670Z,94.89
2019-01-06T01:50:19.194Z,95.27
2019-01-06T01:50:59.668Z,95.08
2019-01-06T01:51:40.118Z,94.7
2019-01-06T01:52:20.414Z,94.03
2019-01-06T01:53:00.850Z,94.79
2019-01-06T01:53:41.218Z,94.51
2019-01-06T01:54:21.887Z,94.6
2019-01-06T01:55:04.128Z,94.51
2019-01-06T01:55:46.498Z,94.22
2019-01-06T01:56:28.918Z,94.42
2019-01-06T01:57:09.253Z,94.7
2019-01-06T01:57:49.630Z,94.32
2019-01-06T01:58:30.261Z,94.42
2019-01-06T01:59:10.519Z,93.6
2019-01-06T01:59:54.555Z,93.51
2019-01-06T02:00:35.907Z,93.65
2019-01-06T02:01:16.358Z,93.84
2019-01-06T02:01:56.732Z,94.22
2019-01-06T02:02:37.079Z,93.55
2019-01-06T02:03:17.479Z,93.65
2019-01-06T02:03:58.176Z,94.13
2019-01-06T02:04:38.611Z,93.94
2019-01-06T02:05:19.098Z,93.65
2019-01-06T02:06:00.446Z,93.94
2019-01-06T02:06:40.947Z,93.84
2019-01-06T02:07:21.299Z,94.51
2019-01-06T02:08:03.333Z,94.03
2019-01-06T02:08:44.136Z,94.79
2019-01-06T02:09:26.128Z,94.98
2019-01-06T02:10:07.435Z,94.32
2019-01-06T02:10:47.836Z,94.51
2019-01-06T02:11:30.061Z,94.6
2019-01-06T02:12:10.776Z,94.98
2019-01-06T02:12:50.954Z,94.6
2019-01-06T02:13:31.470Z,94.51
2019-01-06T02:14:11.906Z,93.74
2019-01-06T02:14:52.475Z,94.03
2019-01-06T02:15:34.782Z,93.65
2019-01-06T02:16:15.359Z,94.51
2019-01-06T02:16:56.556Z,94.6
2019-01-06T02:17:38.632Z,94.32
2019-01-06T02:18:19.279Z,94.03
2019-01-06T02:18:59.706Z,94.13
2019-01-06T02:19:41.780Z,94.79
2019-01-06T02:20:24.250Z,94.98
2019-01-06T02:21:04.564Z,95.27
2019-01-06T02:21:48.591Z,95.17
2019-01-06T02:22:32.703Z,94.98
2019-01-06T02:23:12.964Z,95.08
2019-01-06T02:23:54.295Z,94.98
2019-01-06T02:24:35.599Z,94.89
2019-01-06T02:25:17.623Z,94.32
2019-01-06T02:25:58.415Z,94.6
2019-01-06T02:26:40.591Z,95.08
2019-01-06T02:27:22.891Z,95.08
2019-01-06T02:28:04.330Z,95.08
2019-01-06T02:28:44.535Z,94.51
2019-01-06T02:29:25.396Z,94.42
2019-01-06T02:30:05.798Z,94.32
2019-01-06T02:30:46.221Z,95.08
2019-01-06T02:31:28.573Z,95.08
2019-01-06T02:32:08.938Z,95.08
2019-01-06T02:32:51.330Z,94.89
2019-01-06T02:33:31.721Z,95.17
2019-01-06T02:34:12.202Z,95.46
2019-01-06T02:34:52.760Z,95.08
2019-01-06T02:35:34.041Z,95.17
2019-01-06T02:36:14.372Z,95.84
2019-01-06T02:36:54.842Z,96.51
2019-01-06T02:37:37.403Z,97.74
2019-01-06T02:38:18.755Z,98.22
2019-01-06T02:38:59.126Z,97.65
2019-01-06T02:39:39.575Z,97.17
2019-01-06T02:40:20.041Z,96.89
2019-01-06T02:41:00.365Z,96.41
2019-01-06T02:41:41.977Z,97.08
2019-01-06T02:42:22.448Z,97.55
2019-01-06T02:43:02.869Z,97.27
2019-01-06T02:43:44.191Z,97.65
2019-01-06T02:44:26.248Z,97.46
2019-01-06T02:45:06.914Z,97.17
2019-01-06T02:45:47.359Z,97.08
2019-01-06T02:46:27.806Z,97.08
2019-01-06T02:47:13.590Z,97.27
2019-01-06T02:47:55.046Z,96.7
2019-01-06T02:48:35.427Z,96.7
2019-01-06T02:49:15.813Z,96.7
2019-01-06T02:49:56.235Z,96.89
2019-01-06T02:50:36.648Z,96.31
2019-01-06T02:51:20.785Z,97.46
2019-01-06T02:52:01.183Z,97.74
2019-01-06T02:52:41.589Z,97.65
2019-01-06T02:53:22.154Z,98.13
2019-01-06T02:54:02.416Z,97.74
2019-01-06T02:54:42.817Z,97.79
2019-01-06T02:55:24.191Z,98.5
2019-01-06T02:56:04.636Z,98.69
2019-01-06T02:56:45.037Z,98.79
2019-01-06T02:57:25.421Z,98.98
2019-01-06T02:58:05.794Z,98.98
2019-01-06T02:58:46.193Z,98.5
2019-01-06T02:59:26.603Z,97.74
2019-01-06T03:00:07.088Z,98.22
2019-01-06T03:00:48.307Z,98.13
2019-01-06T03:01:28.708Z,98.03
2019-01-06T03:02:09.095Z,98.41
2019-01-06T03:02:51.345Z,98.03
2019-01-06T03:03:31.803Z,98.6
2019-01-06T03:04:12.152Z,98.41
2019-01-06T03:04:52.520Z,99.12
2019-01-06T03:05:33.890Z,99.02
2019-01-06T03:06:15.892Z,98.65
2019-01-06T03:06:57.850Z,98.93
2019-01-06T03:07:38.332Z,98.69
2019-01-06T03:08:18.714Z,99.46
2019-01-06T03:08:59.242Z,98.88
2019-01-06T03:09:39.836Z,98.79
2019-01-06T03:10:20.006Z,98.88
2019-01-06T03:11:00.444Z,99.12
2019-01-06T03:11:42.741Z,98.5
2019-01-06T03:12:23.502Z,99.12
2019-01-06T03:13:03.884Z,98.74
2019-01-06T03:18:14.430Z,99.65
2019-01-06T03:18:56.908Z,98.98
2019-01-06T03:19:38.382Z,99.02
2019-01-06T03:20:20.488Z,98.74
2019-01-06T03:21:02.282Z,99.31
2019-01-06T03:21:42.657Z,98.98
2019-01-06T03:22:28.562Z,99.08
2019-01-06T03:23:09.038Z,98.41
2019-01-06T03:23:49.475Z,98.5
2019-01-06T03:24:29.980Z,98.41
2019-01-06T03:25:10.588Z,98.5
2019-01-06T03:25:50.917Z,98.83
2019-01-06T03:26:31.989Z,98.83
2019-01-06T03:27:13.821Z,98.88
2019-01-06T03:27:54.161Z,98.98
2019-01-06T03:43:18.085Z,99.99
2019-01-06T03:43:58.433Z,99.99
2019-01-06T03:44:40.342Z,99.99
2019-01-06T03:45:20.747Z,99.99
2019-01-06T03:46:02.887Z,99.88
2019-01-06T03:46:43.274Z,99.99
2019-01-06T03:47:23.740Z,99.99
2019-01-06T03:48:04.296Z,99.99
2019-01-06T03:48:44.757Z,99.99
2019-01-06T03:49:25.135Z,99.99
2019-01-06T03:50:05.557Z,99.99
2019-01-06T03:50:45.903Z,99.99
2019-01-06T03:51:26.334Z,99.99
2019-01-06T03:52:08.733Z,99.99
2019-01-06T03:52:55.589Z,99.98
2019-01-06T03:53:37.208Z,99.99
2019-01-06T03:54:19.068Z,99.99
2019-01-06T03:54:59.431Z,99.99
2019-01-06T03:55:40.659Z,99.99
2019-01-06T03:56:20.655Z,99.99
2019-01-06T03:57:01.994Z,99.99
2019-01-06T03:57:43.527Z,99.99
2019-01-06T03:58:24.942Z,99.99
2019-01-06T03:59:05.285Z,99.99
2019-01-06T03:59:45.672Z,99.99
2019-01-06T04:00:26.102Z,99.99
2019-01-06T04:01:08.102Z,99.99
2019-01-06T04:01:48.464Z,99.99
2019-01-06T04:02:28.884Z,99.99
2019-01-06T04:03:10.142Z,99.99
2019-01-06T04:03:50.532Z,99.99
2019-01-06T04:04:31.046Z,99.99
2019-01-06T04:05:11.324Z,99.99
2019-01-06T04:05:53.420Z,99.99
2019-01-06T04:06:34.745Z,99.99
2019-01-06T04:07:15.136Z,99.99
2019-01-06T04:07:57.554Z,99.99
2019-01-06T04:08:37.809Z,99.99
2019-01-06T04:09:18.166Z,99.99
2019-01-06T04:09:58.557Z,99.99
2019-01-06T04:10:40.635Z,99.99
2019-01-06T04:11:23.807Z,99.99
2019-01-06T04:12:04.190Z,99.99
2019-01-06T04:12:46.611Z,99.99
2019-01-06T04:13:27.052Z,99.99
2019-01-06T04:25:57.125Z,99.99
2019-01-06T04:26:40.100Z,99.99
2019-01-06T04:27:20.584Z,99.99
2019-01-06T05:13:29.573Z,99.99
2019-01-06T05:14:12.773Z,99.99
2019-01-06T05:15:00.154Z,99.99
2019-01-06T05:15:41.672Z,99.99
2019-01-06T05:16:24.761Z,99.99
2019-01-06T05:17:08.510Z,99.99
2019-01-06T05:17:50.486Z,99.99
2019-01-06T05:18:32.217Z,99.99
2019-01-06T05:19:12.253Z,99.99
2019-01-06T05:19:55.317Z,99.99
2019-01-06T05:20:35.297Z,99.99
2019-01-06T05:21:15.748Z,99.99
2019-01-06T05:21:58.080Z,99.99
2019-01-06T05:22:39.189Z,99.99
2019-01-06T05:23:21.857Z,99.99
2019-01-06T05:24:06.699Z,99.99
2019-01-06T05:24:47.060Z,99.99
2019-01-06T05:25:27.436Z,99.99
2019-01-06T05:26:09.795Z,99.6
2019-01-06T05:26:51.790Z,99.99
2019-01-06T05:27:32.147Z,99.69
2019-01-06T05:28:12.570Z,99.69
2019-01-06T05:28:54.671Z,99.41
2019-01-06T05:29:37.917Z,99.31
2019-01-06T05:30:22.958Z,99.98
2019-01-06T05:31:05.349Z,99.88
2019-01-06T05:31:45.761Z,98.74
2019-01-06T05:32:31.790Z,98.55
2019-01-06T05:33:13.794Z,98.79
2019-01-06T05:33:55.768Z,98.41
2019-01-06T05:34:37.089Z,98.22
2019-01-06T05:35:19.284Z,98.22
2019-01-06T05:35:59.751Z,98.03
2019-01-06T05:36:40.163Z,97.55
2019-01-06T05:37:20.522Z,97.65
2019-01-06T05:38:01.686Z,97.17
2019-01-06T05:38:44.172Z,97.55
2019-01-06T05:39:24.477Z,97.27
2019-01-06T05:40:04.890Z,97.46
2019-01-06T05:40:45.300Z,97.46
2019-01-06T05:41:25.737Z,97.93
2019-01-06T05:42:06.744Z,97.69
2019-01-06T05:42:47.152Z,98.08
2019-01-06T05:43:27.520Z,98.03
2019-01-06T05:44:07.888Z,98.32
2019-01-06T05:44:48.364Z,97.65
2019-01-06T05:45:29.729Z,97.08
2019-01-06T05:46:13.044Z,97.17
2019-01-06T05:46:53.960Z,96.6
2019-01-06T05:47:36.800Z,96.7
2019-01-06T05:59:30.732Z,94.98
2019-01-06T06:00:13.520Z,95.17
2019-01-06T08:08:29.036Z,98.46
2019-01-06T08:09:23.598Z,97.69
2019-01-06T08:16:36.276Z,97.69
2019-01-06T08:17:29.147Z,97.22
2019-01-06T08:18:23.357Z,98.17
2019-01-06T08:19:17.934Z,97.88
2019-01-06T08:20:10.977Z,97.69
2019-01-06T08:21:06.148Z,98.55
2019-01-06T08:21:58.874Z,97.98
2019-01-06T08:22:51.799Z,97.98
2019-01-06T08:23:45.188Z,97.13
2019-01-06T08:24:39.298Z,97.69
2019-01-06T08:25:31.889Z,97.36
2019-01-06T08:26:24.887Z,97.03
2019-01-06T08:27:17.329Z,97.27
2019-01-06T08:28:11.074Z,96.7
2019-01-06T08:29:05.071Z,96.84
2019-01-06T08:29:59.610Z,96.36
2019-01-06T08:30:52.283Z,97.46
2019-01-06T08:31:48.904Z,96.98
2019-01-06T08:40:42.061Z,96.22
2019-01-06T08:41:35.293Z,96.7
2019-01-06T08:42:29.406Z,96.79
2019-01-06T08:43:22.341Z,96.98
2019-01-06T08:44:17.430Z,97.55
2019-01-06T08:45:12.981Z,97.08
2019-01-06T08:46:07.349Z,96.6
2019-01-06T08:47:03.326Z,97.13
2019-01-06T08:47:59.866Z,97.93
2019-01-06T08:48:53.129Z,96.36
2019-01-06T08:49:45.957Z,97.31
2019-01-06T08:50:40.313Z,96.51
2019-01-06T08:51:36.523Z,97.17
2019-01-06T08:52:28.698Z,96.89
2019-01-06T08:53:21.798Z,97.27
2019-01-06T08:54:14.930Z,97.74
2019-01-06T08:55:08.039Z,97.27
2019-01-06T08:56:00.529Z,97.08
2019-01-06T08:56:53.770Z,96.51
2019-01-06T08:57:46.641Z,96.22
2019-01-06T08:58:40.495Z,95.65
2019-01-06T08:59:33.275Z,96.22
2019-01-06T09:00:28.483Z,96.12
2019-01-06T09:01:24.144Z,96.7
2019-01-06T09:02:17.408Z,96.7
2019-01-06T09:03:12.861Z,96.74
2019-01-06T09:04:06.245Z,97.41
2019-01-06T09:04:58.817Z,97.36
2019-01-06T09:05:54.097Z,97.17
2019-01-06T09:06:47.174Z,97.22
2019-01-06T09:07:42.410Z,97.13
2019-01-06T09:08:35.831Z,97.31
2019-01-06T09:09:32.395Z,97.13
2019-01-06T09:10:24.432Z,97.5
2019-01-06T09:11:17.261Z,97.41
2019-01-06T09:12:10.060Z,97.46
2019-01-06T09:13:03.729Z,97.74
2019-01-06T09:13:58.738Z,97.65
2019-01-06T09:14:54.697Z,97.74
2019-01-06T09:15:50.910Z,97.46
2019-01-06T09:16:47.402Z,96.98
2019-01-06T09:17:40.907Z,96.79
2019-01-06T09:18:34.405Z,96.79
2019-01-06T09:19:30.347Z,96.79
2019-01-06T09:20:23.213Z,96.7
2019-01-06T09:21:16.654Z,96.31
2019-01-06T09:22:10.726Z,95.84
2019-01-06T09:23:03.170Z,95.08
2019-01-06T09:23:58.407Z,94.98
2019-01-06T09:24:51.394Z,94.89
2019-01-06T09:25:41.088Z,94.51
2019-01-06T09:26:20.204Z,95.03
2019-01-06T09:27:00.637Z,95.12
2019-01-06T09:27:41.085Z,94.27
2019-01-06T09:28:21.616Z,94.89
2019-01-06T09:29:01.895Z,94.37
2019-01-06T09:29:42.451Z,94.65
2019-01-06T09:30:23.218Z,94.56
2019-01-06T09:31:03.476Z,94.56
2019-01-06T09:31:43.831Z,94.65
2019-01-06T09:32:24.280Z,94.7
2019-01-06T09:33:04.674Z,95.32
2019-01-06T09:33:45.036Z,95.12
2019-01-06T09:34:25.460Z,95.03
2019-01-06T09:35:05.907Z,95.27
2019-01-06T09:35:46.391Z,94.51
2019-01-06T09:36:27.051Z,94.98
2019-01-06T09:37:07.507Z,94.89
2019-01-06T09:37:47.854Z,94.89
2019-01-06T09:38:28.600Z,95.17
2019-01-06T09:39:09.212Z,96.03
2019-01-06T09:39:49.696Z,96.12
2019-01-06T09:40:30.570Z,96.22
2019-01-06T09:41:12.938Z,95.32
2019-01-06T09:41:53.423Z,95.27
2019-01-06T09:42:33.862Z,95.17
2019-01-06T09:43:14.184Z,95.36
2019-01-06T09:43:55.062Z,96.22
2019-01-06T09:44:35.289Z,96.22
2019-01-06T09:45:15.627Z,96.31
2019-01-06T09:45:56.030Z,95.17
2019-01-06T09:46:36.888Z,96.12
2019-01-06T09:47:17.288Z,96.08
2019-01-06T09:47:57.651Z,96.12
2019-01-06T09:48:38.018Z,95.12
2019-01-06T09:49:18.983Z,95.27
2019-01-06T09:49:59.953Z,95.51
2019-01-06T09:50:40.494Z,96.46
2019-01-06T10:19:24.922Z,96.27
2019-01-06T10:20:11.947Z,96.36
2019-01-06T10:20:56.041Z,96.46
2019-01-06T10:21:38.308Z,96.7
2019-01-06T10:22:18.846Z,97.13
2019-01-06T10:23:01.014Z,96.08
2019-01-06T10:23:42.322Z,95.17
2019-01-06T10:24:26.267Z,96.12
2019-01-06T10:25:07.384Z,96.51
2019-01-06T10:26:27.982Z,96.89
2019-01-06T10:27:08.381Z,97.6
2019-01-06T10:27:48.839Z,96.36
2019-01-06T10:28:31.244Z,96.94
2019-01-06T10:29:15.229Z,96.51
2019-01-06T11:22:39.559Z,99.99
2019-01-06T11:23:27.893Z,99.99
2019-01-06T11:24:13.844Z,99.93
2019-01-06T11:24:53.897Z,99.93
2019-01-06T11:25:36.431Z,99.99
2019-01-06T11:26:19.605Z,99.99
2019-01-06T11:27:05.546Z,99.99
2019-01-06T11:27:49.514Z,99.99
2019-01-06T11:28:30.097Z,99.99
2019-01-06T11:29:14.126Z,99.99
2019-01-06T11:29:56.542Z,99.99
2019-01-06T11:30:38.798Z,99.99
2019-01-06T11:31:19.343Z,98.98
2019-01-06T11:32:01.532Z,98.6
2019-01-06T11:32:41.920Z,99.99
2019-01-06T11:33:22.428Z,99.99
2019-01-06T11:34:02.721Z,99.99
2019-01-06T11:34:43.126Z,99.99
2019-01-06T11:35:24.027Z,99.69
2019-01-06T11:36:05.835Z,98.27
2019-01-06T11:36:47.287Z,99.99
2019-01-06T11:37:27.597Z,98.94
2019-01-06T11:38:11.020Z,99.13
2019-01-06T11:38:54.428Z,98.27
2019-01-06T11:39:34.875Z,97.79
2019-01-06T11:40:17.826Z,97.89
2019-01-06T11:40:58.750Z,98.94
2019-01-06T11:41:40.930Z,98.27
2019-01-06T11:42:23.042Z,98.84
2019-01-06T11:43:07.041Z,98.84
2019-01-06T11:43:51.436Z,99.99
2019-01-06T11:44:42.433Z,99.03
2019-01-06T11:45:25.747Z,98.65
2019-01-06T11:46:11.748Z,99.13
2019-01-06T11:46:54.906Z,99.99
2019-01-06T11:47:36.056Z,99.98
2019-01-06T11:48:17.727Z,98.46
2019-01-06T11:49:00.033Z,98.65
2019-01-06T11:49:42.357Z,98.55
2019-01-06T11:50:23.705Z,99.22
2019-01-06T11:51:04.125Z,99.13
2019-01-06T11:51:44.469Z,97.79
2019-01-06T11:52:27.639Z,99.13
2019-01-06T11:53:08.124Z,96.75
2019-01-06T11:53:48.577Z,96.55
2019-01-06T11:54:29.462Z,95.03
2019-01-06T11:55:12.088Z,96.94
2019-01-06T11:55:51.827Z,98.46
2019-01-06T11:56:35.011Z,97.89
2019-01-06T11:57:20.075Z,98.08
2019-01-06T11:58:02.027Z,98.55
2019-01-06T11:58:44.332Z,98.65
2019-01-06T11:59:24.690Z,96.51
2019-01-06T12:00:05.123Z,96.03
2019-01-06T12:00:45.544Z,95.56
2019-01-06T12:01:28.466Z,95.08
2019-01-06T12:02:10.395Z,96.22
2019-01-06T12:02:50.811Z,95.17
2019-01-06T12:03:33.453Z,94.98
2019-01-06T12:04:14.591Z,95.36
2019-01-06T12:05:00.364Z,94.98
2019-01-06T12:05:41.532Z,94.89
2019-01-06T12:06:21.942Z,94.56
2019-01-06T12:07:08.132Z,94.65
2019-01-06T12:07:49.409Z,94.56
2019-01-06T12:08:40.651Z,96.55
2019-01-06T12:09:15.816Z,96.94
2019-01-06T12:09:59.726Z,96.46
2019-01-06T12:10:44.931Z,95.03
2019-01-06T12:11:27.003Z,96.55
2019-01-06T12:12:17.743Z,98.32
2019-01-06T12:12:59.936Z,99.18
2019-01-06T12:13:40.339Z,96.22
2019-01-06T12:14:27.543Z,95.12
2019-01-06T12:15:19.547Z,92.84
2019-01-06T12:16:00.029Z,93.03
2019-01-06T12:16:42.932Z,92.84
2019-01-06T12:17:27.634Z,92.46
2019-01-06T12:18:10.666Z,93.22
2019-01-06T12:18:54.648Z,91.98
2019-01-06T12:19:35.043Z,93.41
2019-01-06T12:20:16.353Z,93.03
2019-01-06T16:09:09.965Z,89.79
2019-01-06T16:10:02.451Z,89.79
2019-01-06T16:10:58.238Z,89.79
2019-01-06T16:11:52.440Z,89.7
2019-01-06T16:12:45.457Z,89.79
2019-01-06T16:13:38.336Z,89.65
2019-01-06T16:14:30.784Z,90.22
2019-01-06T16:15:23.463Z,91.17
2019-01-06T16:16:17.060Z,91.37
2019-01-06T16:17:10.121Z,90.61
2019-01-06T16:18:04.875Z,90.99
2019-01-06T16:18:59.501Z,90.8
2019-01-06T16:19:53.239Z,90.7
2019-01-06T16:20:48.396Z,91.46
2019-01-06T16:21:42.742Z,91.46
2019-01-06T16:22:35.087Z,92.03
2019-01-06T16:23:29.379Z,91.75
2019-01-06T16:24:23.435Z,91.6
2019-01-06T16:25:17.385Z,91.03
2019-01-06T16:26:11.069Z,89.98
2019-01-06T16:27:06.053Z,89.22
2019-01-06T16:27:59.349Z,89.51
2019-01-06T16:28:54.058Z,89.13
2019-01-06T16:29:48.133Z,89.13
2019-01-06T16:30:42.289Z,88.65
2019-01-06T19:20:01.778Z,85.8
2019-01-06T19:20:43.708Z,86.18
2019-01-06T19:21:24.135Z,86.46
2019-01-06T19:22:04.581Z,85.8
2019-01-06T19:22:44.970Z,86.65
2019-01-06T19:23:25.363Z,86.46
2019-01-06T19:24:05.785Z,86.46
2019-01-06T19:24:46.099Z,86.08
2019-01-06T19:25:26.511Z,86.55
2019-01-06T19:26:06.899Z,85.89
2019-01-06T19:26:47.319Z,86.55
2019-01-06T19:27:27.672Z,86.46
2019-01-06T19:28:08.189Z,86.46
2019-01-06T19:28:48.631Z,86.55
2019-01-06T19:29:29.001Z,86.27
2019-01-06T19:30:09.381Z,86.75
2019-01-06T19:30:50.308Z,86.46
2019-01-06T19:31:30.641Z,87.13
2019-01-06T19:32:11.076Z,87.13
2019-01-06T19:32:51.759Z,87.79
2019-01-06T19:33:32.060Z,86.94
2019-01-06T19:34:12.867Z,86.84
